Карточка аэропорта UMKK

Внимание!
Информация на этой странице в стадии наполнения.
Если вы не увидели какой-то информации, или заметили неточность - пожалуйста сообщите нам!
Спасибо!
Команда RU-STAFF
Название аэропортаХраброво
Название аэропорта (англ.)Khrabrovo
Превышение43 ft. (13.1 m.)
Координаты54°53.4', 20°35.55'
Высота перехода4000ft
Эшелон переходаFL50 (QNH>=1013hPa); FL60 (QNH<1013hPa); FL50 (QNH<977hPa);
Коды ответчика6620-6637
Зона ОрВДКалининград РПИ (UMKK)
Данные METARUMKK 140330Z 21005MPS 9000 -SHRA BKN047CB 11/10 Q1008 R24/290095 NOSIG RMK QFE755/1007
Проноз погоды (TAF)UMKK 140155Z 1403/1503 21005G10MPS 6000 BKN016 TEMPO 1403/1408 2100 -TSRA BKN010 BKN016CB BECMG 1406/1408 27010G17MPS BECMG 1408/1410 27015G22MPS BECMG 1415/1418 26012G18MPS BECMG 1421/1423 27009G15MPS
NOTAMshow/hide NOTAM
AWOS   TABLE

Информация о ВПП

ВПП Длина ВПП (м.) Покрытие Курс ВПП Частота ILS
063350Асфальтобетон60110.3
243350Асфальтобетон240109.5

Диспетчерские позиции

Позывной Наименование органа УВД Частота
UMKK_TWRКалининград-Вышка127.2
UMKK_APPКалининград-Подход126.0



Спутниковое изображение